Vermillion, KS (66544)

12:39 PM CST on March 06, 2015 (GMT -0600)
MesoWest LILLIS KS US UPR | Change Station
CLOSE
Current Station
Personal Weather Station
Location: Vermillion, KS
Elevation: 1252 ft
Nearby Weather Stations

Elev 1252 ft 39.61 °N, 96.30 °W | Updated 1 hour ago

Clear
Clear
47.0 °F
Feels Like 47.0 °F
N
-
Wind Variable Wind from North

Today
High -- | Low -- °F
--% Chance of Precip.
Yesterday
High -- | Low -- °F
Precip. -- in
6:50 AM 6:22 PM
Full, 99% visible
Pressure 30.27 in
Visibility 10.0 miles
Clouds Clear
Dew Point Not available.
Humidity Not available.
Rainfall in
Snow Depth Not available.
UV 6 out of 12
Pollen 3.80 out of 12
Air Quality Not available.
Flu Activity Not available.
METAR KFNB 061753Z AUTO 25013KT 10SM CLR 13/M06 A3025 RMK AO2 SLP251 T01331061 10133 21022 58003

More Conditions Fewer Conditions

Pressure 30.27 in
Visibility 10.0 miles
Clouds Clear
Dew Point Not available.
Humidity Not available.
Rainfall in
Snow Depth Not available.
UV 6 out of 12
Pollen 3.80 out of 12
Air Quality Not available.
Flu Activity Not available.
METAR KFNB 061753Z AUTO 25013KT 10SM CLR 13/M06 A3025 RMK AO2 SLP251 T01331061 10133 21022 58003

More Conditions Fewer Conditions

10-Day Weather Forecast

Almanac

Astronomy

Mar. 06, 2015 Rise Set
Actual Time
Civil Twilight
Nautical Twilight
Astronomical Twilight
Moon
Length of Visible Light
Length of Day
Tomorrow will be .
, % of the Moon is Illuminated

Today's Extremes

State Highs State Lows

Community

WunderPhotos

Upload Photos

1,803,367 photos uploaded!

WunderBlogs® & News

Nearby

Air Quality

  Air Quality AQ Index Pollutant
Not available.

Snow Depth

Station Depth Elevation

Earthquake Activity

City Distance Mag. Time & Date
Minimum magnitude displayed is 2.5.

Coastal Water Temperatures

Place Temperature

Nearby Weather Stations